sensor_id;sensor_type;location;lat;lon;timestamp;temperature;humidity
48604;DHT22;32708;51.212;6.788;2024-03-08T00:00:09;5.70;99.90
48604;DHT22;32708;51.212;6.788;2024-03-08T00:02:39;5.80;99.90
48604;DHT22;32708;51.212;6.788;2024-03-08T00:05:06;5.70;99.90
48604;DHT22;32708;51.212;6.788;2024-03-08T00:07:41;5.80;99.90
48604;DHT22;32708;51.212;6.788;2024-03-08T00:10:12;5.70;99.90
48604;DHT22;32708;51.212;6.788;2024-03-08T00:12:43;5.70;99.90
48604;DHT22;32708;51.212;6.788;2024-03-08T00:15:11;5.70;99.90
48604;DHT22;32708;51.212;6.788;2024-03-08T00:17:42;6.00;99.90
48604;DHT22;32708;51.212;6.788;2024-03-08T00:20:10;5.60;99.90
48604;DHT22;32708;51.212;6.788;2024-03-08T00:22:38;5.60;99.90
48604;DHT22;32708;51.212;6.788;2024-03-08T00:25:05;5.60;99.90
48604;DHT22;32708;51.212;6.788;2024-03-08T00:27:35;5.60;99.90
48604;DHT22;32708;51.212;6.788;2024-03-08T00:30:03;5.50;1.00
48604;DHT22;32708;51.212;6.788;2024-03-08T00:32:30;5.50;1.00
48604;DHT22;32708;51.212;6.788;2024-03-08T00:34:57;5.50;1.00
48604;DHT22;32708;51.212;6.788;2024-03-08T00:37:24;5.50;1.00
48604;DHT22;32708;51.212;6.788;2024-03-08T00:39:53;5.60;1.00
48604;DHT22;32708;51.212;6.788;2024-03-08T00:42:20;5.50;1.00
48604;DHT22;32708;51.212;6.788;2024-03-08T00:44:47;5.00;1.00
48604;DHT22;32708;51.212;6.788;2024-03-08T00:47:17;5.30;1.00
48604;DHT22;32708;51.212;6.788;2024-03-08T00:49:43;5.40;1.00
48604;DHT22;32708;51.212;6.788;2024-03-08T00:52:09;5.30;1.00
48604;DHT22;32708;51.212;6.788;2024-03-08T00:54:36;5.30;1.00
48604;DHT22;32708;51.212;6.788;2024-03-08T00:57:03;5.20;1.00
48604;DHT22;32708;51.212;6.788;2024-03-08T00:59:30;5.20;1.00
48604;DHT22;32708;51.212;6.788;2024-03-08T01:02:00;5.20;1.00
48604;DHT22;32708;51.212;6.788;2024-03-08T01:04:28;5.90;1.00
48604;DHT22;32708;51.212;6.788;2024-03-08T01:06:58;5.10;1.00
48604;DHT22;32708;51.212;6.788;2024-03-08T01:09:26;5.10;1.00
48604;DHT22;32708;51.212;6.788;2024-03-08T01:11:55;5.10;1.00
48604;DHT22;32708;51.212;6.788;2024-03-08T01:14:22;5.20;1.00
48604;DHT22;32708;51.212;6.788;2024-03-08T01:16:49;5.10;1.00
48604;DHT22;32708;51.212;6.788;2024-03-08T01:19:16;5.00;8.80
48604;DHT22;32708;51.212;6.788;2024-03-08T01:21:43;5.00;46.40
48604;DHT22;32708;51.212;6.788;2024-03-08T01:24:10;5.00;46.10
48604;DHT22;32708;51.212;6.788;2024-03-08T01:26:36;5.00;24.30
48604;DHT22;32708;51.212;6.788;2024-03-08T01:29:03;5.10;1.00
48604;DHT22;32708;51.212;6.788;2024-03-08T01:31:30;5.00;23.40
48604;DHT22;32708;51.212;6.788;2024-03-08T01:33:57;4.90;91.80
48604;DHT22;32708;51.212;6.788;2024-03-08T01:36:24;5.00;78.20
48604;DHT22;32708;51.212;6.788;2024-03-08T01:38:51;5.00;22.30
48604;DHT22;32708;51.212;6.788;2024-03-08T01:41:18;5.00;32.40
48604;DHT22;32708;51.212;6.788;2024-03-08T01:43:45;5.00;39.70
48604;DHT22;32708;51.212;6.788;2024-03-08T01:46:15;5.60;24.30
48604;DHT22;32708;51.212;6.788;2024-03-08T01:48:48;5.00;7.90
48604;DHT22;32708;51.212;6.788;2024-03-08T01:51:16;5.00;46.40
48604;DHT22;32708;51.212;6.788;2024-03-08T01:53:46;5.00;44.10
48604;DHT22;32708;51.212;6.788;2024-03-08T01:56:14;5.60;93.80
48604;DHT22;32708;51.212;6.788;2024-03-08T01:58:43;4.80;99.90
48604;DHT22;32708;51.212;6.788;2024-03-08T02:01:12;4.80;99.90
48604;DHT22;32708;51.212;6.788;2024-03-08T02:03:40;4.70;99.90
48604;DHT22;32708;51.212;6.788;2024-03-08T02:06:12;4.70;99.90
48604;DHT22;32708;51.212;6.788;2024-03-08T02:08:45;4.70;99.90
48604;DHT22;32708;51.212;6.788;2024-03-08T02:11:13;4.60;99.90
48604;DHT22;32708;51.212;6.788;2024-03-08T02:13:39;4.70;99.90
48604;DHT22;32708;51.212;6.788;2024-03-08T02:16:06;4.90;99.90
48604;DHT22;32708;51.212;6.788;2024-03-08T02:18:34;4.70;99.90
48604;DHT22;32708;51.212;6.788;2024-03-08T02:21:01;4.60;99.90
48604;DHT22;32708;51.212;6.788;2024-03-08T02:23:29;4.60;99.90
48604;DHT22;32708;51.212;6.788;2024-03-08T02:25:56;4.60;99.90
48604;DHT22;32708;51.212;6.788;2024-03-08T02:28:24;4.60;99.90
48604;DHT22;32708;51.212;6.788;2024-03-08T02:30:55;5.00;99.90
48604;DHT22;32708;51.212;6.788;2024-03-08T02:33:27;5.10;99.90
48604;DHT22;32708;51.212;6.788;2024-03-08T02:35:54;4.50;99.90
48604;DHT22;32708;51.212;6.788;2024-03-08T02:38:23;4.60;99.90
48604;DHT22;32708;51.212;6.788;2024-03-08T02:40:52;5.00;99.90
48604;DHT22;32708;51.212;6.788;2024-03-08T02:43:20;4.60;99.90
48604;DHT22;32708;51.212;6.788;2024-03-08T02:45:51;5.10;99.90
48604;DHT22;32708;51.212;6.788;2024-03-08T02:48:18;4.60;99.90
48604;DHT22;32708;51.212;6.788;2024-03-08T02:50:45;4.50;99.90
48604;DHT22;32708;51.212;6.788;2024-03-08T02:53:12;4.50;99.90
48604;DHT22;32708;51.212;6.788;2024-03-08T02:55:40;4.50;99.90
48604;DHT22;32708;51.212;6.788;2024-03-08T02:58:08;4.90;99.90
48604;DHT22;32708;51.212;6.788;2024-03-08T03:00:36;4.50;99.90
48604;DHT22;32708;51.212;6.788;2024-03-08T03:03:03;4.90;99.90
48604;DHT22;32708;51.212;6.788;2024-03-08T03:05:30;4.60;99.90
48604;DHT22;32708;51.212;6.788;2024-03-08T03:07:56;4.60;99.90
48604;DHT22;32708;51.212;6.788;2024-03-08T03:10:24;4.60;99.90
48604;DHT22;32708;51.212;6.788;2024-03-08T03:12:50;4.60;99.90
48604;DHT22;32708;51.212;6.788;2024-03-08T03:15:17;4.60;99.90
48604;DHT22;32708;51.212;6.788;2024-03-08T03:17:48;4.90;99.90
48604;DHT22;32708;51.212;6.788;2024-03-08T03:20:17;4.50;99.90
48604;DHT22;32708;51.212;6.788;2024-03-08T03:22:52;4.60;99.90
48604;DHT22;32708;51.212;6.788;2024-03-08T03:25:19;4.60;99.90
48604;DHT22;32708;51.212;6.788;2024-03-08T03:27:55;4.60;99.90
48604;DHT22;32708;51.212;6.788;2024-03-08T03:30:24;4.60;99.90
48604;DHT22;32708;51.212;6.788;2024-03-08T03:32:53;4.60;99.90
48604;DHT22;32708;51.212;6.788;2024-03-08T03:35:21;4.50;99.90
48604;DHT22;32708;51.212;6.788;2024-03-08T03:37:49;4.50;99.90
48604;DHT22;32708;51.212;6.788;2024-03-08T03:40:28;4.40;99.90
48604;DHT22;32708;51.212;6.788;2024-03-08T03:42:55;4.50;99.90
48604;DHT22;32708;51.212;6.788;2024-03-08T03:45:22;4.50;99.90
48604;DHT22;32708;51.212;6.788;2024-03-08T03:47:51;4.50;99.90
48604;DHT22;32708;51.212;6.788;2024-03-08T03:50:18;4.50;99.90
48604;DHT22;32708;51.212;6.788;2024-03-08T03:52:46;4.50;99.90
48604;DHT22;32708;51.212;6.788;2024-03-08T03:55:13;5.20;99.90
48604;DHT22;32708;51.212;6.788;2024-03-08T03:57:40;4.50;99.90
48604;DHT22;32708;51.212;6.788;2024-03-08T04:00:07;4.70;99.90
48604;DHT22;32708;51.212;6.788;2024-03-08T04:02:40;4.50;99.90
48604;DHT22;32708;51.212;6.788;2024-03-08T04:05:08;4.50;99.90
48604;DHT22;32708;51.212;6.788;2024-03-08T04:07:35;4.50;99.90
48604;DHT22;32708;51.212;6.788;2024-03-08T04:10:03;4.50;99.90
48604;DHT22;32708;51.212;6.788;2024-03-08T04:12:33;4.50;99.90
48604;DHT22;32708;51.212;6.788;2024-03-08T04:14:59;5.00;99.90
48604;DHT22;32708;51.212;6.788;2024-03-08T04:17:26;4.50;99.90
48604;DHT22;32708;51.212;6.788;2024-03-08T04:19:52;4.60;99.90
48604;DHT22;32708;51.212;6.788;2024-03-08T04:22:20;4.50;99.90
48604;DHT22;32708;51.212;6.788;2024-03-08T04:24:46;4.50;99.90
48604;DHT22;32708;51.212;6.788;2024-03-08T04:27:13;4.60;99.90
48604;DHT22;32708;51.212;6.788;2024-03-08T04:29:42;4.50;99.90
48604;DHT22;32708;51.212;6.788;2024-03-08T04:32:09;4.50;99.90
48604;DHT22;32708;51.212;6.788;2024-03-08T04:34:35;4.50;99.90
48604;DHT22;32708;51.212;6.788;2024-03-08T04:37:02;4.90;99.90
48604;DHT22;32708;51.212;6.788;2024-03-08T04:39:31;4.50;99.90
48604;DHT22;32708;51.212;6.788;2024-03-08T04:42:01;4.50;99.90
48604;DHT22;32708;51.212;6.788;2024-03-08T04:44:37;4.50;99.90
48604;DHT22;32708;51.212;6.788;2024-03-08T04:47:04;4.60;99.90
48604;DHT22;32708;51.212;6.788;2024-03-08T04:49:34;4.50;99.90
48604;DHT22;32708;51.212;6.788;2024-03-08T04:52:04;5.10;99.90
48604;DHT22;32708;51.212;6.788;2024-03-08T04:54:31;4.50;99.90
48604;DHT22;32708;51.212;6.788;2024-03-08T04:56:57;4.50;99.90
48604;DHT22;32708;51.212;6.788;2024-03-08T04:59:26;4.60;99.90
48604;DHT22;32708;51.212;6.788;2024-03-08T05:01:53;4.50;99.90
48604;DHT22;32708;51.212;6.788;2024-03-08T05:04:20;4.40;99.90
48604;DHT22;32708;51.212;6.788;2024-03-08T05:06:46;4.40;99.90
48604;DHT22;32708;51.212;6.788;2024-03-08T05:09:13;4.50;99.90
48604;DHT22;32708;51.212;6.788;2024-03-08T05:11:43;4.50;99.90
48604;DHT22;32708;51.212;6.788;2024-03-08T05:14:10;4.60;99.90
48604;DHT22;32708;51.212;6.788;2024-03-08T05:16:36;4.50;99.90
48604;DHT22;32708;51.212;6.788;2024-03-08T05:19:03;4.90;99.90
48604;DHT22;32708;51.212;6.788;2024-03-08T05:21:29;4.40;99.90
48604;DHT22;32708;51.212;6.788;2024-03-08T05:23:55;4.50;99.90
48604;DHT22;32708;51.212;6.788;2024-03-08T05:26:21;5.10;99.90
48604;DHT22;32708;51.212;6.788;2024-03-08T05:28:48;4.40;99.90
48604;DHT22;32708;51.212;6.788;2024-03-08T05:31:21;4.40;99.90
48604;DHT22;32708;51.212;6.788;2024-03-08T05:33:50;4.50;99.90
48604;DHT22;32708;51.212;6.788;2024-03-08T05:36:16;4.40;99.90
48604;DHT22;32708;51.212;6.788;2024-03-08T05:38:43;4.80;99.90
48604;DHT22;32708;51.212;6.788;2024-03-08T05:41:10;4.40;99.90
48604;DHT22;32708;51.212;6.788;2024-03-08T05:43:40;4.50;99.90
48604;DHT22;32708;51.212;6.788;2024-03-08T05:46:08;4.60;99.90
48604;DHT22;32708;51.212;6.788;2024-03-08T05:48:37;4.40;99.90
48604;DHT22;32708;51.212;6.788;2024-03-08T05:51:24;4.40;99.90
48604;DHT22;32708;51.212;6.788;2024-03-08T05:53:54;4.90;1.00
48604;DHT22;32708;51.212;6.788;2024-03-08T05:56:21;5.00;1.00
48604;DHT22;32708;51.212;6.788;2024-03-08T05:58:48;4.40;1.00
48604;DHT22;32708;51.212;6.788;2024-03-08T06:01:16;4.50;1.00
48604;DHT22;32708;51.212;6.788;2024-03-08T06:03:42;4.50;1.00
48604;DHT22;32708;51.212;6.788;2024-03-08T06:06:14;4.50;1.00
48604;DHT22;32708;51.212;6.788;2024-03-08T06:08:43;4.50;1.00
48604;DHT22;32708;51.212;6.788;2024-03-08T06:11:10;4.50;1.00
48604;DHT22;32708;51.212;6.788;2024-03-08T06:13:36;4.60;19.10
48604;DHT22;32708;51.212;6.788;2024-03-08T06:16:03;4.70;99.90
48604;DHT22;32708;51.212;6.788;2024-03-08T06:18:33;4.60;99.90
48604;DHT22;32708;51.212;6.788;2024-03-08T06:21:06;4.70;99.90
48604;DHT22;32708;51.212;6.788;2024-03-08T06:23:33;4.70;99.90
48604;DHT22;32708;51.212;6.788;2024-03-08T06:25:59;4.70;99.90
48604;DHT22;32708;51.212;6.788;2024-03-08T06:28:26;4.70;99.90
48604;DHT22;32708;51.212;6.788;2024-03-08T06:30:52;4.70;99.90
48604;DHT22;32708;51.212;6.788;2024-03-08T06:33:18;4.70;99.90
48604;DHT22;32708;51.212;6.788;2024-03-08T06:35:45;4.70;99.90
48604;DHT22;32708;51.212;6.788;2024-03-08T06:38:11;4.80;99.90
48604;DHT22;32708;51.212;6.788;2024-03-08T06:40:37;4.80;99.90
48604;DHT22;32708;51.212;6.788;2024-03-08T06:43:04;5.30;99.90
48604;DHT22;32708;51.212;6.788;2024-03-08T06:45:32;5.40;99.90
48604;DHT22;32708;51.212;6.788;2024-03-08T06:47:58;5.50;89.40
48604;DHT22;32708;51.212;6.788;2024-03-08T06:50:24;5.70;9.20
48604;DHT22;32708;51.212;6.788;2024-03-08T06:52:52;5.80;1.00
48604;DHT22;32708;51.212;6.788;2024-03-08T06:55:20;5.90;1.00
48604;DHT22;32708;51.212;6.788;2024-03-08T06:57:46;6.10;1.00
48604;DHT22;32708;51.212;6.788;2024-03-08T07:00:13;6.40;1.00
48604;DHT22;32708;51.212;6.788;2024-03-08T07:02:44;6.60;99.90
48604;DHT22;32708;51.212;6.788;2024-03-08T07:05:19;6.70;99.90
48604;DHT22;32708;51.212;6.788;2024-03-08T07:07:46;7.00;99.90
48604;DHT22;32708;51.212;6.788;2024-03-08T07:10:15;7.20;99.90
48604;DHT22;32708;51.212;6.788;2024-03-08T07:12:42;7.30;99.90
48604;DHT22;32708;51.212;6.788;2024-03-08T07:15:09;7.20;99.90
48604;DHT22;32708;51.212;6.788;2024-03-08T07:17:39;7.30;99.90
48604;DHT22;32708;51.212;6.788;2024-03-08T07:20:07;7.50;99.90
48604;DHT22;32708;51.212;6.788;2024-03-08T07:22:38;7.50;99.90
48604;DHT22;32708;51.212;6.788;2024-03-08T07:25:06;7.40;99.90
48604;DHT22;32708;51.212;6.788;2024-03-08T07:27:51;7.50;99.90
48604;DHT22;32708;51.212;6.788;2024-03-08T07:30:22;8.00;99.90
48604;DHT22;32708;51.212;6.788;2024-03-08T07:33:09;8.00;99.90
48604;DHT22;32708;51.212;6.788;2024-03-08T07:35:39;8.30;99.90
48604;DHT22;32708;51.212;6.788;2024-03-08T07:38:07;8.20;99.90
48604;DHT22;32708;51.212;6.788;2024-03-08T07:40:38;8.30;99.90
48604;DHT22;32708;51.212;6.788;2024-03-08T07:43:07;8.10;99.90
48604;DHT22;32708;51.212;6.788;2024-03-08T07:45:39;8.00;99.90
48604;DHT22;32708;51.212;6.788;2024-03-08T07:48:06;7.70;99.90
48604;DHT22;32708;51.212;6.788;2024-03-08T07:50:40;8.20;99.90
48604;DHT22;32708;51.212;6.788;2024-03-08T07:53:07;8.10;99.90
48604;DHT22;32708;51.212;6.788;2024-03-08T07:55:34;8.10;99.90
48604;DHT22;32708;51.212;6.788;2024-03-08T07:58:02;8.10;99.90
48604;DHT22;32708;51.212;6.788;2024-03-08T08:00:29;8.10;99.90
48604;DHT22;32708;51.212;6.788;2024-03-08T08:02:57;8.30;99.90
48604;DHT22;32708;51.212;6.788;2024-03-08T08:05:23;8.30;99.90
48604;DHT22;32708;51.212;6.788;2024-03-08T08:07:50;8.50;99.90
48604;DHT22;32708;51.212;6.788;2024-03-08T08:10:18;8.60;99.90
48604;DHT22;32708;51.212;6.788;2024-03-08T08:12:51;8.90;99.90
48604;DHT22;32708;51.212;6.788;2024-03-08T08:15:17;9.10;99.90
48604;DHT22;32708;51.212;6.788;2024-03-08T08:17:44;9.10;99.90
48604;DHT22;32708;51.212;6.788;2024-03-08T08:20:12;9.20;99.90
48604;DHT22;32708;51.212;6.788;2024-03-08T08:22:39;9.10;99.90
48604;DHT22;32708;51.212;6.788;2024-03-08T08:25:07;9.00;99.90
48604;DHT22;32708;51.212;6.788;2024-03-08T08:27:34;9.10;99.90
48604;DHT22;32708;51.212;6.788;2024-03-08T08:30:03;8.90;99.90
48604;DHT22;32708;51.212;6.788;2024-03-08T08:32:37;8.30;99.90
48604;DHT22;32708;51.212;6.788;2024-03-08T08:35:08;8.30;99.90
48604;DHT22;32708;51.212;6.788;2024-03-08T08:37:35;8.60;99.90
48604;DHT22;32708;51.212;6.788;2024-03-08T08:40:05;8.60;99.90
48604;DHT22;32708;51.212;6.788;2024-03-08T08:42:37;8.30;99.90
48604;DHT22;32708;51.212;6.788;2024-03-08T08:45:07;8.50;99.90
48604;DHT22;32708;51.212;6.788;2024-03-08T08:47:35;8.60;99.90
48604;DHT22;32708;51.212;6.788;2024-03-08T08:50:03;8.40;99.90
48604;DHT22;32708;51.212;6.788;2024-03-08T08:52:33;8.50;99.90
48604;DHT22;32708;51.212;6.788;2024-03-08T08:55:06;8.40;99.90
48604;DHT22;32708;51.212;6.788;2024-03-08T08:57:35;8.50;99.90
48604;DHT22;32708;51.212;6.788;2024-03-08T09:00:02;8.50;99.90
48604;DHT22;32708;51.212;6.788;2024-03-08T09:02:35;8.60;99.90
48604;DHT22;32708;51.212;6.788;2024-03-08T09:05:03;8.70;99.90
48604;DHT22;32708;51.212;6.788;2024-03-08T09:07:30;8.60;99.90
48604;DHT22;32708;51.212;6.788;2024-03-08T09:09:58;8.60;99.90
48604;DHT22;32708;51.212;6.788;2024-03-08T09:12:24;8.40;99.90
48604;DHT22;32708;51.212;6.788;2024-03-08T09:14:51;8.50;99.90
48604;DHT22;32708;51.212;6.788;2024-03-08T09:17:17;8.60;99.90
48604;DHT22;32708;51.212;6.788;2024-03-08T09:19:50;8.70;99.90
48604;DHT22;32708;51.212;6.788;2024-03-08T09:22:16;8.80;99.90
48604;DHT22;32708;51.212;6.788;2024-03-08T09:24:42;9.10;99.90
48604;DHT22;32708;51.212;6.788;2024-03-08T09:27:14;8.80;99.90
48604;DHT22;32708;51.212;6.788;2024-03-08T09:29:40;8.70;99.90
48604;DHT22;32708;51.212;6.788;2024-03-08T09:32:06;8.70;99.90
48604;DHT22;32708;51.212;6.788;2024-03-08T09:34:33;9.00;99.90
48604;DHT22;32708;51.212;6.788;2024-03-08T09:36:59;9.10;99.90
48604;DHT22;32708;51.212;6.788;2024-03-08T09:39:25;9.20;99.90
48604;DHT22;32708;51.212;6.788;2024-03-08T09:41:52;9.30;99.90
48604;DHT22;32708;51.212;6.788;2024-03-08T09:44:20;9.30;99.90
48604;DHT22;32708;51.212;6.788;2024-03-08T09:46:46;9.50;99.90
48604;DHT22;32708;51.212;6.788;2024-03-08T09:49:13;9.50;99.90
48604;DHT22;32708;51.212;6.788;2024-03-08T09:51:40;9.50;99.90
48604;DHT22;32708;51.212;6.788;2024-03-08T09:54:07;9.50;99.90
48604;DHT22;32708;51.212;6.788;2024-03-08T09:56:35;9.40;99.90
48604;DHT22;32708;51.212;6.788;2024-03-08T09:59:03;9.40;99.90
48604;DHT22;32708;51.212;6.788;2024-03-08T10:01:51;9.50;99.90
48604;DHT22;32708;51.212;6.788;2024-03-08T10:04:18;9.50;99.90
48604;DHT22;32708;51.212;6.788;2024-03-08T10:06:45;9.60;99.90
48604;DHT22;32708;51.212;6.788;2024-03-08T10:09:15;9.80;99.90
48604;DHT22;32708;51.212;6.788;2024-03-08T10:11:42;9.90;99.90
48604;DHT22;32708;51.212;6.788;2024-03-08T10:14:16;10.10;99.90
48604;DHT22;32708;51.212;6.788;2024-03-08T10:16:45;10.40;99.90
48604;DHT22;32708;51.212;6.788;2024-03-08T10:19:12;10.50;99.90
48604;DHT22;32708;51.212;6.788;2024-03-08T10:21:51;10.70;99.90
48604;DHT22;32708;51.212;6.788;2024-03-08T10:24:20;10.80;99.90
48604;DHT22;32708;51.212;6.788;2024-03-08T10:26:48;10.80;99.90
48604;DHT22;32708;51.212;6.788;2024-03-08T10:29:18;10.80;99.90
48604;DHT22;32708;51.212;6.788;2024-03-08T10:31:46;11.20;99.90
48604;DHT22;32708;51.212;6.788;2024-03-08T10:34:13;11.10;99.90
48604;DHT22;32708;51.212;6.788;2024-03-08T10:36:42;11.10;99.90
48604;DHT22;32708;51.212;6.788;2024-03-08T10:39:23;11.00;99.90
48604;DHT22;32708;51.212;6.788;2024-03-08T10:41:57;11.10;99.90
48604;DHT22;32708;51.212;6.788;2024-03-08T10:47:04;10.80;99.90
48604;DHT22;32708;51.212;6.788;2024-03-08T10:52:51;10.90;99.90
48604;DHT22;32708;51.212;6.788;2024-03-08T10:55:19;10.80;99.90
48604;DHT22;32708;51.212;6.788;2024-03-08T10:57:47;11.00;99.90
48604;DHT22;32708;51.212;6.788;2024-03-08T11:00:14;11.40;99.90
48604;DHT22;32708;51.212;6.788;2024-03-08T11:02:45;11.20;99.90
48604;DHT22;32708;51.212;6.788;2024-03-08T11:05:38;11.50;99.90
48604;DHT22;32708;51.212;6.788;2024-03-08T11:10:51;11.50;99.90
48604;DHT22;32708;51.212;6.788;2024-03-08T11:13:34;11.30;99.90
48604;DHT22;32708;51.212;6.788;2024-03-08T11:19:22;11.20;99.90
48604;DHT22;32708;51.212;6.788;2024-03-08T11:22:05;11.20;99.90
48604;DHT22;32708;51.212;6.788;2024-03-08T11:24:40;11.20;99.90
48604;DHT22;32708;51.212;6.788;2024-03-08T11:27:10;10.80;99.90
48604;DHT22;32708;51.212;6.788;2024-03-08T11:29:40;10.80;99.90
48604;DHT22;32708;51.212;6.788;2024-03-08T11:34:37;10.60;99.90
48604;DHT22;32708;51.212;6.788;2024-03-08T11:37:10;10.70;99.90
48604;DHT22;32708;51.212;6.788;2024-03-08T11:39:52;10.80;99.90
48604;DHT22;32708;51.212;6.788;2024-03-08T11:42:30;10.90;99.90
48604;DHT22;32708;51.212;6.788;2024-03-08T11:44:57;11.00;99.90
48604;DHT22;32708;51.212;6.788;2024-03-08T11:47:23;11.20;99.90
48604;DHT22;32708;51.212;6.788;2024-03-08T11:49:52;11.20;99.90
48604;DHT22;32708;51.212;6.788;2024-03-08T11:52:19;11.10;99.90
48604;DHT22;32708;51.212;6.788;2024-03-08T11:54:53;11.00;99.90
48604;DHT22;32708;51.212;6.788;2024-03-08T11:57:23;10.90;99.90
48604;DHT22;32708;51.212;6.788;2024-03-08T11:59:54;11.00;99.90
48604;DHT22;32708;51.212;6.788;2024-03-08T12:02:22;11.10;99.90
48604;DHT22;32708;51.212;6.788;2024-03-08T12:04:56;11.10;99.90
48604;DHT22;32708;51.212;6.788;2024-03-08T12:07:26;11.20;99.90
48604;DHT22;32708;51.212;6.788;2024-03-08T12:10:15;11.20;99.90
48604;DHT22;32708;51.212;6.788;2024-03-08T12:12:53;11.30;99.90
48604;DHT22;32708;51.212;6.788;2024-03-08T12:15:23;11.50;99.90
48604;DHT22;32708;51.212;6.788;2024-03-08T12:17:52;11.50;99.20
48604;DHT22;32708;51.212;6.788;2024-03-08T12:20:25;11.40;98.60
48604;DHT22;32708;51.212;6.788;2024-03-08T12:22:54;11.30;99.00
48604;DHT22;32708;51.212;6.788;2024-03-08T12:25:33;11.40;99.90
48604;DHT22;32708;51.212;6.788;2024-03-08T12:28:08;11.30;97.60
48604;DHT22;32708;51.212;6.788;2024-03-08T12:30:52;11.40;97.30
48604;DHT22;32708;51.212;6.788;2024-03-08T12:33:24;11.50;98.10
48604;DHT22;32708;51.212;6.788;2024-03-08T12:35:51;11.70;97.80
48604;DHT22;32708;51.212;6.788;2024-03-08T12:38:21;11.80;98.10
48604;DHT22;32708;51.212;6.788;2024-03-08T12:40:58;11.90;97.50
48604;DHT22;32708;51.212;6.788;2024-03-08T12:43:25;11.90;96.60
48604;DHT22;32708;51.212;6.788;2024-03-08T12:45:53;11.90;96.80
48604;DHT22;32708;51.212;6.788;2024-03-08T12:48:20;11.80;96.10
48604;DHT22;32708;51.212;6.788;2024-03-08T12:50:47;11.90;95.80
48604;DHT22;32708;51.212;6.788;2024-03-08T12:53:14;11.90;93.70
48604;DHT22;32708;51.212;6.788;2024-03-08T12:55:41;11.80;92.90
48604;DHT22;32708;51.212;6.788;2024-03-08T12:58:10;11.80;92.40
48604;DHT22;32708;51.212;6.788;2024-03-08T13:00:37;11.70;92.60
48604;DHT22;32708;51.212;6.788;2024-03-08T13:03:06;11.80;93.60
48604;DHT22;32708;51.212;6.788;2024-03-08T13:05:34;11.90;92.30
48604;DHT22;32708;51.212;6.788;2024-03-08T13:08:08;12.00;92.10
48604;DHT22;32708;51.212;6.788;2024-03-08T13:10:41;11.90;91.90
48604;DHT22;32708;51.212;6.788;2024-03-08T13:13:10;11.70;91.10
48604;DHT22;32708;51.212;6.788;2024-03-08T13:15:37;11.90;91.50
48604;DHT22;32708;51.212;6.788;2024-03-08T13:18:04;12.00;91.00
48604;DHT22;32708;51.212;6.788;2024-03-08T13:20:31;12.00;90.70
48604;DHT22;32708;51.212;6.788;2024-03-08T13:22:57;12.10;91.30
48604;DHT22;32708;51.212;6.788;2024-03-08T13:25:27;12.20;90.40
48604;DHT22;32708;51.212;6.788;2024-03-08T13:27:55;12.10;90.00
48604;DHT22;32708;51.212;6.788;2024-03-08T13:30:25;12.10;90.20
48604;DHT22;32708;51.212;6.788;2024-03-08T13:32:55;12.20;90.10
48604;DHT22;32708;51.212;6.788;2024-03-08T13:35:21;12.30;88.30
48604;DHT22;32708;51.212;6.788;2024-03-08T13:37:52;12.20;85.70
48604;DHT22;32708;51.212;6.788;2024-03-08T13:40:18;12.20;87.60
48604;DHT22;32708;51.212;6.788;2024-03-08T13:42:46;12.30;86.00
48604;DHT22;32708;51.212;6.788;2024-03-08T13:45:16;12.40;85.90
48604;DHT22;32708;51.212;6.788;2024-03-08T13:47:53;12.40;85.80
48604;DHT22;32708;51.212;6.788;2024-03-08T13:50:23;12.40;83.90
48604;DHT22;32708;51.212;6.788;2024-03-08T13:52:50;12.40;82.60
48604;DHT22;32708;51.212;6.788;2024-03-08T13:55:23;12.30;81.70
48604;DHT22;32708;51.212;6.788;2024-03-08T13:57:52;12.30;81.40
48604;DHT22;32708;51.212;6.788;2024-03-08T14:00:21;12.30;81.50
48604;DHT22;32708;51.212;6.788;2024-03-08T14:02:53;12.30;80.80
48604;DHT22;32708;51.212;6.788;2024-03-08T14:05:22;12.10;80.90
48604;DHT22;32708;51.212;6.788;2024-03-08T14:07:52;12.30;80.30
48604;DHT22;32708;51.212;6.788;2024-03-08T14:10:20;12.30;77.20
48604;DHT22;32708;51.212;6.788;2024-03-08T14:12:48;12.30;77.00
48604;DHT22;32708;51.212;6.788;2024-03-08T14:15:16;12.20;77.10
48604;DHT22;32708;51.212;6.788;2024-03-08T14:17:42;12.40;79.80
48604;DHT22;32708;51.212;6.788;2024-03-08T14:20:11;12.40;79.30
48604;DHT22;32708;51.212;6.788;2024-03-08T14:22:41;12.40;77.10
48604;DHT22;32708;51.212;6.788;2024-03-08T14:25:08;12.30;77.10
48604;DHT22;32708;51.212;6.788;2024-03-08T14:27:44;12.30;78.80
48604;DHT22;32708;51.212;6.788;2024-03-08T14:30:12;12.30;75.60
48604;DHT22;32708;51.212;6.788;2024-03-08T14:32:40;12.40;75.40
48604;DHT22;32708;51.212;6.788;2024-03-08T14:35:07;12.50;75.60
48604;DHT22;32708;51.212;6.788;2024-03-08T14:37:34;12.40;77.10
48604;DHT22;32708;51.212;6.788;2024-03-08T14:40:00;12.30;76.50
48604;DHT22;32708;51.212;6.788;2024-03-08T14:42:26;12.10;76.20
48604;DHT22;32708;51.212;6.788;2024-03-08T14:44:53;12.30;76.30
48604;DHT22;32708;51.212;6.788;2024-03-08T14:47:21;12.20;76.50
48604;DHT22;32708;51.212;6.788;2024-03-08T14:49:48;12.20;75.30
48604;DHT22;32708;51.212;6.788;2024-03-08T14:52:14;12.30;75.00
48604;DHT22;32708;51.212;6.788;2024-03-08T14:54:54;12.40;76.40
48604;DHT22;32708;51.212;6.788;2024-03-08T14:57:22;12.30;75.80
48604;DHT22;32708;51.212;6.788;2024-03-08T15:00:46;12.10;66.90
48604;DHT22;32708;51.212;6.788;2024-03-08T15:03:12;12.00;77.20
48604;DHT22;32708;51.212;6.788;2024-03-08T15:05:42;12.10;78.20
48604;DHT22;32708;51.212;6.788;2024-03-08T15:08:13;12.00;79.40
48604;DHT22;32708;51.212;6.788;2024-03-08T15:10:48;12.00;80.50
48604;DHT22;32708;51.212;6.788;2024-03-08T15:13:22;11.90;77.10
48604;DHT22;32708;51.212;6.788;2024-03-08T15:15:53;11.80;77.10
48604;DHT22;32708;51.212;6.788;2024-03-08T15:18:24;11.90;77.50
48604;DHT22;32708;51.212;6.788;2024-03-08T15:21:06;11.90;78.20
48604;DHT22;32708;51.212;6.788;2024-03-08T15:23:37;12.00;77.10
48604;DHT22;32708;51.212;6.788;2024-03-08T15:26:03;11.90;77.10
48604;DHT22;32708;51.212;6.788;2024-03-08T15:28:33;11.90;76.90
48604;DHT22;32708;51.212;6.788;2024-03-08T15:31:04;11.80;77.40
48604;DHT22;32708;51.212;6.788;2024-03-08T15:33:36;11.90;77.30
48604;DHT22;32708;51.212;6.788;2024-03-08T15:36:09;11.90;79.50
48604;DHT22;32708;51.212;6.788;2024-03-08T15:38:37;11.90;79.50
48604;DHT22;32708;51.212;6.788;2024-03-08T15:41:04;11.80;81.50
48604;DHT22;32708;51.212;6.788;2024-03-08T15:43:39;11.80;81.80
48604;DHT22;32708;51.212;6.788;2024-03-08T15:46:07;11.80;82.60
48604;DHT22;32708;51.212;6.788;2024-03-08T15:48:37;11.70;81.90
48604;DHT22;32708;51.212;6.788;2024-03-08T15:51:05;11.80;82.70
48604;DHT22;32708;51.212;6.788;2024-03-08T15:53:33;11.80;82.00
48604;DHT22;32708;51.212;6.788;2024-03-08T15:56:07;11.70;81.40
48604;DHT22;32708;51.212;6.788;2024-03-08T15:58:35;11.70;81.70
48604;DHT22;32708;51.212;6.788;2024-03-08T16:01:02;11.60;81.60
48604;DHT22;32708;51.212;6.788;2024-03-08T16:03:32;11.70;80.90
48604;DHT22;32708;51.212;6.788;2024-03-08T16:05:59;11.70;81.70
48604;DHT22;32708;51.212;6.788;2024-03-08T16:08:25;11.70;81.60